createdAt,value
2023-01-13T00:01:08.903Z,9.00
2023-01-13T00:03:36.274Z,8.90
2023-01-13T00:06:03.799Z,8.80
2023-01-13T00:08:31.171Z,8.80
2023-01-13T00:10:57.889Z,8.80
2023-01-13T00:13:27.401Z,8.80
2023-01-13T00:15:58.959Z,8.70
2023-01-13T00:18:26.087Z,8.70
2023-01-13T00:21:03.336Z,8.60
2023-01-13T00:23:31.566Z,8.60
2023-01-13T00:26:07.479Z,8.50
2023-01-13T00:28:34.528Z,8.50
2023-01-13T00:31:26.198Z,8.50
2023-01-13T00:33:53.189Z,8.40
2023-01-13T00:36:20.778Z,8.40
2023-01-13T00:38:48.138Z,8.30
2023-01-13T00:41:17.008Z,8.30
2023-01-13T00:43:44.004Z,8.20
2023-01-13T00:46:12.913Z,8.30
2023-01-13T00:48:39.657Z,8.20
2023-01-13T00:51:07.876Z,8.20
2023-01-13T00:53:37.189Z,8.20
2023-01-13T00:56:21.846Z,8.20
2023-01-13T00:58:52.052Z,8.10
2023-01-13T01:01:21.402Z,8.10
2023-01-13T01:03:48.569Z,8.10
2023-01-13T01:06:17.912Z,8.00
2023-01-13T01:08:45.379Z,8.00
2023-01-13T01:11:15.476Z,8.00
2023-01-13T01:13:42.461Z,8.00
2023-01-13T01:16:12.598Z,8.00
2023-01-13T01:18:44.381Z,8.00
2023-01-13T01:21:11.815Z,8.00
2023-01-13T01:23:39.498Z,8.00
2023-01-13T01:26:11.442Z,8.00
2023-01-13T01:28:38.508Z,8.10
2023-01-13T01:31:10.143Z,8.10
2023-01-13T01:33:36.983Z,8.10
2023-01-13T01:36:04.202Z,8.10
2023-01-13T01:38:31.007Z,8.10
2023-01-13T01:40:58.288Z,8.10
2023-01-13T01:43:59.815Z,8.10
2023-01-13T01:46:47.991Z,8.20
2023-01-13T01:49:14.568Z,8.20
2023-01-13T01:51:49.805Z,8.20
2023-01-13T01:54:23.076Z,8.30
2023-01-13T01:56:50.145Z,8.30
2023-01-13T01:59:17.823Z,8.20
2023-01-13T02:01:45.271Z,8.20
2023-01-13T02:04:16.147Z,8.10
2023-01-13T02:06:44.351Z,8.20
2023-01-13T02:09:12.149Z,8.10
2023-01-13T02:11:57.469Z,8.00
2023-01-13T02:14:27.878Z,8.00
2023-01-13T02:17:14.464Z,8.00
2023-01-13T02:20:06.884Z,7.90
2023-01-13T02:22:51.419Z,7.90
2023-01-13T02:25:26.957Z,7.90
2023-01-13T02:28:26.816Z,7.80
2023-01-13T02:31:17.528Z,7.80
2023-01-13T02:34:10.017Z,7.80
2023-01-13T02:36:49.907Z,7.80
2023-01-13T02:39:21.718Z,7.70
2023-01-13T02:42:16.454Z,7.70
2023-01-13T02:44:48.146Z,7.80
2023-01-13T02:47:25.566Z,7.70
2023-01-13T02:50:01.390Z,7.70
2023-01-13T02:52:33.866Z,7.60
2023-01-13T02:55:09.046Z,7.70
2023-01-13T02:57:37.488Z,7.60
2023-01-13T03:00:08.670Z,7.60
2023-01-13T03:02:35.462Z,7.70
2023-01-13T03:05:02.295Z,7.60
2023-01-13T03:07:34.928Z,7.60
2023-01-13T03:10:24.635Z,7.50
2023-01-13T03:13:16.303Z,7.50
2023-01-13T03:16:07.765Z,7.60
2023-01-13T03:19:06.566Z,7.50
2023-01-13T03:21:59.465Z,7.60
2023-01-13T03:24:39.328Z,7.60
2023-01-13T03:27:33.907Z,7.60
2023-01-13T03:30:14.542Z,7.60
2023-01-13T03:32:45.365Z,7.70
2023-01-13T03:35:14.713Z,7.70
2023-01-13T03:37:46.275Z,7.70
2023-01-13T03:40:15.332Z,7.80
2023-01-13T03:43:05.590Z,7.80
2023-01-13T03:45:34.160Z,7.80
2023-01-13T03:48:14.042Z,7.80
2023-01-13T03:50:56.265Z,7.80
2023-01-13T03:54:09.027Z,7.80
2023-01-13T03:56:46.154Z,7.80
2023-01-13T03:59:18.792Z,7.80
2023-01-13T04:02:04.600Z,7.80
2023-01-13T04:04:36.943Z,7.90
2023-01-13T04:07:40.868Z,7.80
2023-01-13T04:10:10.179Z,7.80
2023-01-13T04:12:59.478Z,7.80
2023-01-13T04:15:28.948Z,7.70
2023-01-13T04:18:20.961Z,7.80
2023-01-13T04:20:49.920Z,7.80
2023-01-13T04:23:17.434Z,7.70
2023-01-13T04:25:45.108Z,7.70
2023-01-13T04:28:12.567Z,7.70
2023-01-13T04:30:39.575Z,7.60
2023-01-13T04:33:06.615Z,7.70
2023-01-13T04:35:34.665Z,7.70
2023-01-13T04:38:07.456Z,7.70
2023-01-13T04:40:34.165Z,7.70
2023-01-13T04:43:01.026Z,7.70
2023-01-13T04:45:27.732Z,7.70
2023-01-13T04:47:54.392Z,7.70
2023-01-13T04:50:22.526Z,7.80
2023-01-13T04:52:53.469Z,7.70
2023-01-13T04:55:22.179Z,7.70
2023-01-13T04:57:48.855Z,7.70
2023-01-13T05:00:18.259Z,7.80
2023-01-13T05:02:44.860Z,7.70
2023-01-13T05:05:11.600Z,7.70
2023-01-13T05:07:38.478Z,7.80
2023-01-13T05:10:05.663Z,7.70
2023-01-13T05:12:50.999Z,7.70
2023-01-13T05:15:44.035Z,7.70
2023-01-13T05:18:10.985Z,7.70
2023-01-13T05:20:37.614Z,7.60
2023-01-13T05:23:22.710Z,7.60
2023-01-13T05:25:49.576Z,7.70
2023-01-13T05:28:16.879Z,7.70
2023-01-13T05:30:46.105Z,7.70
2023-01-13T05:33:15.150Z,7.60
2023-01-13T05:35:43.624Z,7.60
2023-01-13T05:38:11.042Z,7.60
2023-01-13T05:41:11.400Z,7.60
2023-01-13T05:43:38.074Z,7.60
2023-01-13T05:46:09.613Z,7.70
2023-01-13T05:48:39.485Z,7.60
2023-01-13T05:51:08.335Z,7.60
2023-01-13T05:53:35.588Z,7.60
2023-01-13T05:56:05.667Z,7.60
2023-01-13T05:58:32.490Z,7.60
2023-01-13T06:01:01.142Z,7.60
2023-01-13T06:03:27.922Z,7.70
2023-01-13T06:05:58.792Z,7.70
2023-01-13T06:08:26.423Z,7.70
2023-01-13T06:10:53.206Z,7.60
2023-01-13T06:13:20.252Z,7.60
2023-01-13T06:15:46.998Z,7.60
2023-01-13T06:18:13.685Z,7.60
2023-01-13T06:20:40.274Z,7.60
2023-01-13T06:23:10.798Z,7.60
2023-01-13T06:25:56.887Z,7.60
2023-01-13T06:28:23.488Z,7.60
2023-01-13T06:30:55.607Z,7.60
2023-01-13T06:33:28.082Z,7.70
2023-01-13T06:35:59.670Z,7.70
2023-01-13T06:38:30.050Z,7.70
2023-01-13T06:40:56.777Z,7.70
2023-01-13T06:43:23.413Z,7.70
2023-01-13T06:45:55.320Z,7.60
2023-01-13T06:48:35.025Z,7.60
2023-01-13T06:51:03.677Z,7.60
2023-01-13T06:53:30.741Z,7.60
2023-01-13T06:55:57.486Z,7.60
2023-01-13T06:58:24.141Z,7.60
2023-01-13T07:00:51.437Z,7.60
2023-01-13T07:03:19.501Z,7.60
2023-01-13T07:05:52.735Z,7.70
2023-01-13T07:08:19.354Z,7.60
2023-01-13T07:10:46.227Z,7.60
2023-01-13T07:13:31.489Z,7.60
2023-01-13T07:16:02.852Z,7.60
2023-01-13T07:18:31.811Z,7.60
2023-01-13T07:21:01.302Z,7.60
2023-01-13T07:23:29.523Z,7.60
2023-01-13T07:25:56.989Z,7.60
2023-01-13T07:28:24.760Z,7.60
2023-01-13T07:30:51.561Z,7.60
2023-01-13T07:33:18.539Z,7.60
2023-01-13T07:35:46.264Z,7.60
2023-01-13T07:38:12.958Z,7.60
2023-01-13T07:40:40.494Z,7.60
2023-01-13T07:43:27.393Z,7.60
2023-01-13T07:45:58.722Z,7.60
2023-01-13T07:48:26.974Z,7.70
2023-01-13T07:50:54.603Z,7.70
2023-01-13T07:53:22.574Z,7.60
2023-01-13T07:55:49.303Z,7.70
2023-01-13T07:58:16.270Z,7.80
2023-01-13T08:00:42.873Z,7.70
2023-01-13T08:03:09.673Z,7.70
2023-01-13T08:05:36.419Z,7.60
2023-01-13T08:08:03.097Z,7.60
2023-01-13T08:10:29.718Z,7.60
2023-01-13T08:13:14.903Z,7.60
2023-01-13T08:15:41.732Z,7.50
2023-01-13T08:18:08.355Z,7.60
2023-01-13T08:20:35.010Z,7.50
2023-01-13T08:23:01.766Z,7.50
2023-01-13T08:25:29.612Z,7.40
2023-01-13T08:27:56.895Z,7.40
2023-01-13T08:30:23.623Z,7.40
2023-01-13T08:32:50.708Z,7.40
2023-01-13T08:35:18.011Z,7.40
2023-01-13T08:37:46.304Z,7.40
2023-01-13T08:40:14.593Z,7.30
2023-01-13T08:42:41.328Z,7.30
2023-01-13T08:45:08.897Z,7.20
2023-01-13T08:47:35.659Z,7.20
2023-01-13T08:50:02.431Z,7.10
2023-01-13T08:52:29.908Z,7.00
2023-01-13T08:54:56.547Z,7.10
2023-01-13T08:57:23.260Z,7.10
2023-01-13T08:59:49.877Z,7.00
2023-01-13T09:02:19.816Z,7.10
2023-01-13T09:04:49.701Z,7.10
2023-01-13T09:07:16.645Z,7.10
2023-01-13T09:09:43.584Z,7.10
2023-01-13T09:12:33.955Z,7.20
2023-01-13T09:15:01.585Z,7.10
2023-01-13T09:17:28.445Z,7.20
2023-01-13T09:19:55.127Z,7.20
2023-01-13T09:22:21.872Z,7.20
2023-01-13T09:24:48.615Z,7.20
2023-01-13T09:27:15.767Z,7.20
2023-01-13T09:29:42.909Z,7.20
2023-01-13T09:32:13.708Z,7.30
2023-01-13T09:34:58.967Z,7.30
2023-01-13T09:37:29.554Z,7.30
2023-01-13T09:39:56.492Z,7.30
2023-01-13T09:42:45.104Z,7.30
2023-01-13T09:45:21.073Z,7.40
2023-01-13T09:48:01.316Z,7.40
2023-01-13T09:50:37.721Z,7.40
2023-01-13T09:53:07.116Z,7.40
2023-01-13T09:55:36.886Z,7.50
2023-01-13T09:58:15.012Z,7.60
2023-01-13T10:01:03.039Z,7.60
2023-01-13T10:03:31.587Z,7.60
2023-01-13T10:06:17.496Z,7.70
2023-01-13T10:08:46.944Z,7.80
2023-01-13T10:11:38.625Z,7.80
2023-01-13T10:14:13.807Z,7.90
2023-01-13T10:16:55.104Z,7.90
2023-01-13T10:19:30.745Z,7.90
2023-01-13T10:22:09.165Z,7.80
2023-01-13T10:25:14.679Z,7.70
2023-01-13T10:27:41.796Z,7.70
2023-01-13T10:30:21.528Z,7.70
2023-01-13T10:32:56.000Z,7.60
2023-01-13T10:35:49.766Z,7.60
2023-01-13T10:38:18.955Z,7.50
2023-01-13T10:40:58.374Z,7.40
2023-01-13T10:43:25.985Z,7.40
2023-01-13T10:46:07.319Z,7.50
2023-01-13T10:48:37.516Z,7.50
2023-01-13T10:51:30.382Z,7.50
2023-01-13T10:53:58.561Z,7.50
2023-01-13T10:56:29.934Z,7.60
2023-01-13T10:59:22.804Z,7.50
2023-01-13T11:02:25.443Z,7.60
2023-01-13T11:04:53.052Z,7.60
2023-01-13T11:07:31.756Z,7.60
2023-01-13T11:10:19.193Z,7.50
2023-01-13T11:13:16.754Z,7.60
2023-01-13T11:15:46.912Z,7.50
2023-01-13T11:18:43.524Z,7.60
2023-01-13T11:21:22.391Z,7.50
2023-01-13T11:24:06.824Z,7.50
2023-01-13T11:27:15.690Z,7.60
2023-01-13T11:30:19.767Z,7.60
2023-01-13T11:33:16.949Z,7.60
2023-01-13T11:35:43.572Z,7.60
2023-01-13T11:38:33.477Z,7.60
2023-01-13T11:41:14.242Z,7.60
2023-01-13T11:43:59.076Z,7.60
2023-01-13T11:46:28.136Z,7.60
2023-01-13T11:48:56.755Z,7.60
2023-01-13T11:51:29.158Z,7.60
2023-01-13T11:54:01.799Z,7.70
2023-01-13T11:56:34.639Z,7.70
2023-01-13T11:59:33.431Z,7.70
2023-01-13T12:02:18.487Z,7.70
2023-01-13T12:05:13.452Z,7.60
2023-01-13T12:07:46.783Z,7.50
2023-01-13T12:10:36.643Z,7.50
2023-01-13T12:13:24.908Z,7.50
2023-01-13T12:16:06.632Z,7.40
2023-01-13T12:19:10.583Z,7.60
2023-01-13T12:21:58.832Z,7.60
2023-01-13T12:24:29.359Z,7.70
2023-01-13T12:27:19.114Z,7.70
2023-01-13T12:29:48.847Z,7.70
2023-01-13T12:32:20.950Z,7.80
2023-01-13T12:34:57.293Z,7.80
2023-01-13T12:37:43.004Z,7.80
2023-01-13T12:40:38.613Z,7.80
2023-01-13T12:43:37.512Z,7.80
2023-01-13T12:46:19.091Z,7.90
2023-01-13T12:48:54.804Z,7.90
2023-01-13T12:51:24.069Z,7.80
2023-01-13T12:53:51.598Z,7.70
2023-01-13T12:56:43.694Z,7.60
2023-01-13T12:59:19.869Z,7.60
2023-01-13T13:02:06.979Z,7.60
2023-01-13T13:04:42.523Z,7.60
2023-01-13T13:07:16.978Z,7.60
2023-01-13T13:09:49.307Z,7.60
2023-01-13T13:13:04.239Z,7.60
2023-01-13T13:15:35.500Z,7.60
2023-01-13T13:18:08.622Z,7.70
2023-01-13T13:20:54.173Z,7.70
2023-01-13T13:23:26.580Z,7.70
2023-01-13T13:26:04.154Z,7.70
2023-01-13T13:28:38.115Z,7.60
2023-01-13T13:31:31.814Z,7.70
2023-01-13T13:34:34.403Z,7.70
2023-01-13T13:37:26.659Z,7.70
2023-01-13T13:40:12.816Z,7.70
2023-01-13T13:43:15.129Z,7.80
2023-01-13T13:46:10.537Z,7.80
2023-01-13T13:48:37.353Z,7.80
2023-01-13T13:51:22.567Z,7.90
2023-01-13T13:53:49.439Z,7.90
2023-01-13T13:56:23.232Z,7.90
2023-01-13T13:58:52.155Z,8.00
2023-01-13T14:01:28.447Z,7.80
2023-01-13T14:04:21.354Z,7.90
2023-01-13T14:07:04.879Z,7.90
2023-01-13T14:09:41.786Z,7.90
2023-01-13T14:12:20.634Z,7.90
2023-01-13T14:14:49.104Z,8.00
2023-01-13T14:17:34.774Z,8.00
2023-01-13T14:20:14.493Z,8.00
2023-01-13T14:22:50.664Z,7.90
2023-01-13T14:25:39.727Z,8.00
2023-01-13T14:28:29.068Z,8.00
2023-01-13T14:30:57.187Z,8.00
2023-01-13T14:33:34.158Z,8.00
2023-01-13T14:36:36.735Z,8.00
2023-01-13T14:39:03.408Z,7.90
2023-01-13T14:41:59.599Z,7.90
2023-01-13T14:44:28.081Z,7.90
2023-01-13T14:46:57.535Z,7.90
2023-01-13T14:49:41.448Z,8.00
2023-01-13T14:52:22.964Z,8.10
2023-01-13T14:54:51.726Z,8.00
2023-01-13T14:57:35.395Z,8.00
2023-01-13T15:00:14.297Z,8.00
2023-01-13T15:02:51.211Z,8.10
2023-01-13T15:05:22.382Z,8.10
2023-01-13T15:07:59.545Z,8.10
2023-01-13T15:10:34.899Z,8.10
2023-01-13T15:13:04.350Z,8.10
2023-01-13T15:15:36.383Z,8.10
2023-01-13T15:18:14.429Z,8.10
2023-01-13T15:20:44.736Z,8.10
2023-01-13T15:23:12.310Z,8.10
2023-01-13T15:25:41.416Z,8.50
2023-01-13T15:28:17.046Z,8.10
2023-01-13T15:30:43.652Z,8.10
2023-01-13T15:33:12.545Z,8.10
2023-01-13T15:35:46.830Z,8.20
2023-01-13T15:38:16.381Z,8.20
2023-01-13T15:40:43.560Z,8.20
2023-01-13T15:43:39.874Z,8.20
2023-01-13T15:46:38.486Z,8.20
2023-01-13T15:49:27.982Z,8.20
2023-01-13T15:51:54.597Z,8.20
2023-01-13T15:54:24.388Z,8.20
2023-01-13T15:56:51.765Z,8.20
2023-01-13T15:59:22.205Z,8.20
2023-01-13T16:01:48.943Z,8.10
2023-01-13T16:04:15.682Z,8.10
2023-01-13T16:06:42.604Z,8.20
2023-01-13T16:09:13.694Z,8.10
2023-01-13T16:11:40.367Z,8.10
2023-01-13T16:14:07.015Z,8.10
2023-01-13T16:16:33.650Z,8.10
2023-01-13T16:19:00.327Z,8.00
2023-01-13T16:21:27.041Z,8.10
2023-01-13T16:23:54.006Z,8.00
2023-01-13T16:26:20.721Z,8.00
2023-01-13T16:28:48.371Z,7.90
2023-01-13T16:31:18.345Z,7.80
2023-01-13T16:33:44.994Z,7.90
2023-01-13T16:36:16.812Z,7.80
2023-01-13T16:38:44.015Z,7.80
2023-01-13T16:41:10.737Z,7.80
2023-01-13T16:43:37.930Z,7.80
2023-01-13T16:46:21.301Z,7.80
2023-01-13T16:48:48.868Z,7.80
2023-01-13T16:51:16.170Z,7.70
2023-01-13T16:53:42.940Z,7.60
2023-01-13T16:56:21.073Z,7.50
2023-01-13T16:58:48.093Z,7.50
2023-01-13T17:01:29.348Z,7.50
2023-01-13T17:03:56.901Z,7.60
2023-01-13T17:06:39.211Z,7.50
2023-01-13T17:09:08.469Z,7.50
2023-01-13T17:11:35.178Z,7.70
2023-01-13T17:14:04.381Z,7.70
2023-01-13T17:16:45.631Z,7.70
2023-01-13T17:19:12.537Z,7.70
2023-01-13T17:21:39.134Z,7.70
2023-01-13T17:24:07.801Z,7.80
2023-01-13T17:26:37.285Z,7.80
2023-01-13T17:29:06.521Z,7.80
2023-01-13T17:31:35.298Z,7.80
2023-01-13T17:34:03.241Z,7.80
2023-01-13T17:36:30.537Z,7.80
2023-01-13T17:38:58.306Z,7.80
2023-01-13T17:41:26.064Z,7.80
2023-01-13T17:43:53.488Z,7.70
2023-01-13T17:46:22.426Z,7.80
2023-01-13T17:48:51.031Z,7.70
2023-01-13T17:51:18.804Z,7.70
2023-01-13T17:53:45.663Z,7.60
2023-01-13T17:56:14.331Z,7.60
2023-01-13T17:58:41.579Z,7.70
2023-01-13T18:01:15.265Z,7.60
2023-01-13T18:03:42.557Z,7.60
2023-01-13T18:06:15.711Z,7.60
2023-01-13T18:08:42.463Z,7.50
2023-01-13T18:11:09.134Z,7.60
2023-01-13T18:13:36.238Z,7.60
2023-01-13T18:16:11.287Z,7.60
2023-01-13T18:18:39.974Z,7.60
2023-01-13T18:21:26.040Z,7.50
2023-01-13T18:24:11.346Z,7.60
2023-01-13T18:26:56.698Z,7.60
2023-01-13T18:29:23.373Z,7.50
2023-01-13T18:31:50.038Z,7.50
2023-01-13T18:34:16.770Z,7.40
2023-01-13T18:36:43.474Z,7.40
2023-01-13T18:39:10.254Z,7.40
2023-01-13T18:41:55.427Z,7.30
2023-01-13T18:44:22.099Z,7.30
2023-01-13T18:46:48.815Z,7.40
2023-01-13T18:49:15.638Z,7.30
2023-01-13T18:51:43.146Z,7.30
2023-01-13T18:54:09.815Z,7.30
2023-01-13T18:56:36.445Z,7.30
2023-01-13T18:59:03.752Z,7.30
2023-01-13T19:01:30.503Z,7.30
2023-01-13T19:04:05.106Z,7.20
2023-01-13T19:06:33.753Z,7.20
2023-01-13T19:09:08.155Z,7.20
2023-01-13T19:11:38.712Z,7.30
2023-01-13T19:14:05.317Z,7.30
2023-01-13T19:16:32.035Z,7.30
2023-01-13T19:18:59.823Z,7.30
2023-01-13T19:21:26.413Z,7.20
2023-01-13T19:23:54.475Z,7.20
2023-01-13T19:26:21.076Z,7.30
2023-01-13T19:28:48.634Z,7.30
2023-01-13T19:31:20.249Z,7.30
2023-01-13T19:33:47.132Z,7.30
2023-01-13T19:36:13.916Z,7.30
2023-01-13T19:38:47.079Z,7.20
2023-01-13T19:41:33.697Z,7.20
2023-01-13T19:44:19.034Z,7.20
2023-01-13T19:46:45.690Z,7.20
2023-01-13T19:49:12.385Z,7.20
2023-01-13T19:51:38.973Z,7.20
2023-01-13T19:54:05.725Z,7.20
2023-01-13T19:56:32.497Z,7.20
2023-01-13T19:58:59.154Z,7.20
2023-01-13T20:01:31.675Z,7.20
2023-01-13T20:04:03.162Z,7.10
2023-01-13T20:06:31.706Z,7.20
2023-01-13T20:08:58.784Z,7.20
2023-01-13T20:11:31.497Z,7.20
2023-01-13T20:13:59.589Z,7.20
2023-01-13T20:16:27.948Z,7.20
2023-01-13T20:18:54.859Z,7.20
2023-01-13T20:21:22.346Z,7.20
2023-01-13T20:23:50.493Z,7.20
2023-01-13T20:26:17.713Z,7.20
2023-01-13T20:28:44.445Z,7.20
2023-01-13T20:31:12.767Z,7.20
2023-01-13T20:33:39.665Z,7.20
2023-01-13T20:36:07.589Z,7.20
2023-01-13T20:38:40.375Z,7.10
2023-01-13T20:41:26.093Z,7.10
2023-01-13T20:43:53.423Z,7.10
2023-01-13T20:46:20.761Z,7.00
2023-01-13T20:48:47.488Z,7.00
2023-01-13T20:51:14.362Z,7.00
2023-01-13T20:53:41.457Z,6.90
2023-01-13T20:56:08.927Z,6.90
2023-01-13T20:58:37.841Z,6.90
2023-01-13T21:01:04.696Z,6.80
2023-01-13T21:03:31.508Z,6.80
2023-01-13T21:05:58.370Z,6.80
2023-01-13T21:08:25.078Z,6.70
2023-01-13T21:10:51.701Z,6.70
2023-01-13T21:13:37.012Z,6.70
2023-01-13T21:16:03.912Z,6.70
2023-01-13T21:18:49.013Z,6.70
2023-01-13T21:21:15.977Z,6.70
2023-01-13T21:23:44.294Z,6.70
2023-01-13T21:26:12.517Z,6.70
2023-01-13T21:28:39.212Z,6.70
2023-01-13T21:31:07.677Z,6.70
2023-01-13T21:33:34.784Z,6.70
2023-01-13T21:36:10.841Z,6.70
2023-01-13T21:38:37.501Z,6.70
2023-01-13T21:41:06.224Z,6.70
2023-01-13T21:43:52.307Z,6.70
2023-01-13T21:46:37.798Z,6.80
2023-01-13T21:49:05.180Z,6.80
2023-01-13T21:51:33.837Z,6.80
2023-01-13T21:54:00.690Z,6.80
2023-01-13T21:56:27.653Z,6.90
2023-01-13T21:58:57.174Z,6.90
2023-01-13T22:01:24.634Z,7.00
2023-01-13T22:04:10.140Z,7.10
2023-01-13T22:06:36.811Z,7.10
2023-01-13T22:09:03.746Z,7.20
2023-01-13T22:11:32.197Z,7.20
2023-01-13T22:14:09.725Z,7.20
2023-01-13T22:16:42.008Z,7.20
2023-01-13T22:19:09.926Z,7.20
2023-01-13T22:21:37.331Z,7.20
2023-01-13T22:24:04.127Z,7.10
2023-01-13T22:26:30.867Z,7.10
2023-01-13T22:28:58.475Z,7.00
2023-01-13T22:31:25.324Z,7.10
2023-01-13T22:33:55.998Z,7.00
2023-01-13T22:36:26.486Z,7.00
2023-01-13T22:38:56.976Z,7.00
2023-01-13T22:41:23.842Z,6.90
2023-01-13T22:43:50.535Z,6.90
2023-01-13T22:46:17.376Z,6.90
2023-01-13T22:48:44.420Z,6.90
2023-01-13T22:51:13.777Z,7.00
2023-01-13T22:53:41.231Z,7.00
2023-01-13T22:56:11.534Z,7.10
2023-01-13T22:58:38.126Z,7.10
2023-01-13T23:01:10.421Z,7.10
2023-01-13T23:03:37.248Z,7.10
2023-01-13T23:06:04.699Z,7.10
2023-01-13T23:08:32.733Z,7.20
2023-01-13T23:11:08.329Z,7.20
2023-01-13T23:13:35.543Z,7.20
2023-01-13T23:16:07.319Z,7.20
2023-01-13T23:18:34.404Z,7.10
2023-01-13T23:21:09.878Z,7.10
2023-01-13T23:23:36.990Z,7.10
2023-01-13T23:26:05.168Z,7.10
2023-01-13T23:28:33.022Z,7.10
2023-01-13T23:31:00.194Z,7.10
2023-01-13T23:33:27.274Z,7.10
2023-01-13T23:35:58.117Z,7.10
2023-01-13T23:38:25.259Z,7.20
2023-01-13T23:40:52.165Z,7.20
2023-01-13T23:43:18.947Z,7.10
2023-01-13T23:45:45.673Z,7.20
2023-01-13T23:48:14.145Z,7.20
2023-01-13T23:50:41.968Z,7.20
2023-01-13T23:53:08.918Z,7.10
2023-01-13T23:55:35.897Z,7.10
2023-01-13T23:58:02.578Z,7.10
